createdAt,value
2022-09-11T00:01:36.579Z,86.55
2022-09-11T00:04:04.201Z,86.48
2022-09-11T00:06:31.198Z,86.36
2022-09-11T00:09:04.505Z,85.94
2022-09-11T00:11:42.048Z,86.92
2022-09-11T00:14:13.771Z,86.26
2022-09-11T00:16:46.007Z,86.41
2022-09-11T00:19:19.908Z,87.07
2022-09-11T00:21:50.404Z,86.01
2022-09-11T00:24:17.730Z,85.74
2022-09-11T00:26:47.388Z,86.48
2022-09-11T00:29:14.371Z,85.46
2022-09-11T00:31:41.785Z,86.85
2022-09-11T00:34:09.518Z,86.48
2022-09-11T00:36:37.572Z,86.94
2022-09-11T00:39:05.012Z,86.79
2022-09-11T00:41:40.003Z,86.64
2022-09-11T00:44:28.314Z,86.11
2022-09-11T00:47:03.173Z,86.56
2022-09-11T00:49:39.679Z,86.35
2022-09-11T00:52:31.039Z,87.02
2022-09-11T00:55:04.949Z,87.15
2022-09-11T00:58:01.777Z,87.28
2022-09-11T01:00:28.696Z,86.72
2022-09-11T01:02:56.792Z,87.40
2022-09-11T01:05:28.036Z,87.41
2022-09-11T01:07:56.551Z,87.16
2022-09-11T01:11:07.295Z,87.06
2022-09-11T01:14:34.513Z,87.61
2022-09-11T01:17:20.398Z,88.72
2022-09-11T01:20:33.282Z,88.61
2022-09-11T01:23:31.564Z,88.32
2022-09-11T01:26:32.603Z,87.96
2022-09-11T01:29:25.422Z,87.56
2022-09-11T01:32:11.705Z,87.53
2022-09-11T01:34:55.534Z,87.60
2022-09-11T01:37:52.031Z,87.10
2022-09-11T01:40:36.699Z,88.32
2022-09-11T01:43:17.208Z,87.97
2022-09-11T01:45:47.201Z,87.11
2022-09-11T01:48:27.025Z,88.22
2022-09-11T01:50:56.971Z,89.07
2022-09-11T01:53:33.432Z,89.47
2022-09-11T01:56:11.011Z,89.85
2022-09-11T01:58:39.536Z,89.85
2022-09-11T02:01:23.139Z,90.22
2022-09-11T02:04:37.704Z,90.37
2022-09-11T02:07:16.904Z,90.24
2022-09-11T02:10:03.153Z,90.59
2022-09-11T02:13:36.992Z,90.88
2022-09-11T02:16:52.747Z,90.40
2022-09-11T02:19:29.863Z,90.70
2022-09-11T02:22:00.243Z,90.12
2022-09-11T02:24:28.411Z,89.08
2022-09-11T02:27:08.419Z,90.72
2022-09-11T02:29:36.982Z,90.44
2022-09-11T02:32:04.613Z,90.37
2022-09-11T02:34:39.904Z,90.48
2022-09-11T02:37:41.940Z,89.78
2022-09-11T02:40:51.591Z,90.35
2022-09-11T02:43:42.947Z,90.05
2022-09-11T02:47:05.515Z,89.72
2022-09-11T02:50:10.385Z,91.53
2022-09-11T02:53:10.553Z,90.32
2022-09-11T02:56:07.982Z,91.25
2022-09-11T02:58:46.313Z,91.13
2022-09-11T03:01:13.431Z,91.70
2022-09-11T03:03:46.439Z,90.57
2022-09-11T03:06:27.290Z,91.05
2022-09-11T03:08:54.356Z,91.33
2022-09-11T03:11:21.460Z,91.22
2022-09-11T03:13:48.457Z,90.70
2022-09-11T03:16:15.450Z,90.95
2022-09-11T03:18:42.416Z,90.34
2022-09-11T03:21:11.371Z,90.33
2022-09-11T03:23:38.616Z,91.18
2022-09-11T03:26:05.631Z,91.73
2022-09-11T03:28:34.090Z,91.60
2022-09-11T03:31:01.130Z,89.89
2022-09-11T03:33:28.144Z,90.21
2022-09-11T03:35:55.207Z,90.26
2022-09-11T03:38:22.198Z,90.35
2022-09-11T03:40:49.273Z,90.09
2022-09-11T03:43:16.704Z,91.21
2022-09-11T03:45:44.772Z,91.12
2022-09-11T03:48:11.916Z,91.75
2022-09-11T03:50:38.864Z,91.87
2022-09-11T03:53:05.857Z,91.34
2022-09-11T03:55:33.194Z,91.42
2022-09-11T03:58:00.399Z,91.99
2022-09-11T04:00:27.741Z,91.60
2022-09-11T04:02:58.106Z,92.15
2022-09-11T04:05:25.333Z,91.60
2022-09-11T04:07:55.089Z,91.77
2022-09-11T04:10:22.372Z,91.07
2022-09-11T04:12:49.341Z,91.29
2022-09-11T04:15:16.407Z,91.41
2022-09-11T04:17:43.505Z,92.00
2022-09-11T04:20:10.929Z,92.84
2022-09-11T04:22:39.327Z,92.45
2022-09-11T04:25:07.611Z,92.93
2022-09-11T04:27:34.675Z,92.23
2022-09-11T04:30:01.589Z,92.39
2022-09-11T04:32:29.214Z,92.50
2022-09-11T04:34:56.326Z,92.09
2022-09-11T04:37:23.305Z,92.73
2022-09-11T04:39:50.490Z,92.66
2022-09-11T04:42:17.560Z,92.14
2022-09-11T04:44:44.484Z,92.76
2022-09-11T04:47:11.434Z,92.80
2022-09-11T04:49:38.393Z,92.25
2022-09-11T04:52:07.223Z,92.80
2022-09-11T04:54:34.217Z,91.87
2022-09-11T04:57:04.294Z,92.19
2022-09-11T04:59:31.263Z,92.49
2022-09-11T05:01:58.258Z,92.19
2022-09-11T05:04:26.538Z,92.91
2022-09-11T05:06:53.698Z,92.60
2022-09-11T05:09:20.823Z,91.56
2022-09-11T05:11:48.297Z,91.72
2022-09-11T05:14:15.327Z,92.45
2022-09-11T05:16:43.713Z,91.89
2022-09-11T05:19:11.035Z,91.59
2022-09-11T05:21:38.264Z,92.19
2022-09-11T05:24:05.312Z,91.13
2022-09-11T05:26:37.131Z,91.88
2022-09-11T05:29:14.968Z,92.53
2022-09-11T05:31:42.594Z,92.96
2022-09-11T05:34:09.804Z,92.89
2022-09-11T05:36:36.942Z,93.30
2022-09-11T05:39:04.467Z,92.53
2022-09-11T05:41:31.441Z,92.43
2022-09-11T05:43:59.175Z,92.82
2022-09-11T05:46:26.325Z,92.26
2022-09-11T05:48:53.645Z,92.28
2022-09-11T05:51:22.307Z,92.48
2022-09-11T05:53:54.420Z,93.46
2022-09-11T05:56:26.145Z,92.87
2022-09-11T05:58:53.312Z,92.12
2022-09-11T06:01:24.917Z,92.12
2022-09-11T06:03:52.862Z,91.96
2022-09-11T06:06:22.923Z,92.01
2022-09-11T06:08:51.749Z,91.10
2022-09-11T06:11:20.764Z,91.15
2022-09-11T06:13:49.202Z,90.96
2022-09-11T06:16:23.136Z,90.95
2022-09-11T06:18:53.035Z,90.33
2022-09-11T06:21:24.260Z,90.83
2022-09-11T06:23:53.162Z,90.89
2022-09-11T06:26:26.549Z,90.87
2022-09-11T06:28:54.281Z,90.87
2022-09-11T06:31:25.766Z,89.46
2022-09-11T06:33:56.074Z,89.83
2022-09-11T06:36:32.561Z,89.56
2022-09-11T06:38:59.636Z,89.51
2022-09-11T06:41:28.170Z,89.79
2022-09-11T06:43:55.295Z,89.53
2022-09-11T06:46:24.977Z,89.89
2022-09-11T06:48:53.774Z,89.80
2022-09-11T06:51:23.182Z,90.27
2022-09-11T06:53:58.095Z,89.65
2022-09-11T06:56:25.736Z,89.20
2022-09-11T06:58:52.885Z,89.40
2022-09-11T07:01:22.239Z,89.72
2022-09-11T07:03:53.679Z,89.73
2022-09-11T07:06:27.615Z,89.52
2022-09-11T07:09:01.558Z,89.06
2022-09-11T07:11:32.364Z,89.14
2022-09-11T07:14:05.813Z,88.91
2022-09-11T07:16:33.782Z,88.32
2022-09-11T07:19:01.377Z,88.22
2022-09-11T07:21:28.822Z,86.65
2022-09-11T07:24:00.024Z,86.72
2022-09-11T07:26:29.487Z,86.47
2022-09-11T07:28:58.305Z,85.36
2022-09-11T07:31:30.281Z,85.64
2022-09-11T07:33:57.593Z,85.17
2022-09-11T07:36:28.731Z,86.36
2022-09-11T07:38:56.422Z,85.69
2022-09-11T07:41:27.931Z,85.08
2022-09-11T07:44:00.203Z,86.10
2022-09-11T07:46:29.858Z,86.33
2022-09-11T07:48:57.271Z,85.36
2022-09-11T07:51:25.666Z,85.71
2022-09-11T07:53:54.304Z,82.91
2022-09-11T07:56:25.607Z,84.16
2022-09-11T07:58:55.105Z,84.24
2022-09-11T08:01:33.213Z,84.98
2022-09-11T08:04:07.270Z,84.14
2022-09-11T08:06:37.472Z,84.79
2022-09-11T08:09:14.698Z,83.40
2022-09-11T08:11:48.815Z,82.25
2022-09-11T08:14:17.601Z,83.67
2022-09-11T08:16:45.272Z,83.11
2022-09-11T08:19:19.571Z,82.82
2022-09-11T08:21:47.761Z,82.07
2022-09-11T08:24:17.109Z,82.15
2022-09-11T08:26:48.723Z,82.10
2022-09-11T08:29:16.309Z,81.33
2022-09-11T08:31:43.837Z,81.23
2022-09-11T08:34:11.118Z,82.30
2022-09-11T08:36:38.649Z,81.92
2022-09-11T08:39:05.769Z,82.31
2022-09-11T08:41:53.637Z,81.86
2022-09-11T08:44:30.984Z,82.17
2022-09-11T08:47:16.505Z,80.69
2022-09-11T08:49:55.186Z,80.14
2022-09-11T08:52:22.303Z,79.17
2022-09-11T08:54:50.543Z,78.40
2022-09-11T08:57:48.859Z,79.27
2022-09-11T09:00:32.046Z,77.37
2022-09-11T09:03:41.985Z,78.42
2022-09-11T09:07:01.456Z,78.41
2022-09-11T09:10:07.724Z,77.67
2022-09-11T09:13:08.458Z,79.13
2022-09-11T09:16:05.146Z,78.65
2022-09-11T09:18:48.814Z,78.93
2022-09-11T09:21:38.545Z,77.83
2022-09-11T09:24:21.185Z,76.59
2022-09-11T09:26:53.356Z,76.53
2022-09-11T09:29:36.036Z,75.86
2022-09-11T09:32:32.328Z,76.18
2022-09-11T09:35:10.817Z,75.61
2022-09-11T09:37:41.702Z,76.44
2022-09-11T09:40:10.917Z,76.09
2022-09-11T09:43:01.962Z,75.89
2022-09-11T09:45:43.754Z,75.90
2022-09-11T09:48:12.153Z,75.25
2022-09-11T09:50:43.900Z,74.74
2022-09-11T09:53:48.462Z,75.35
2022-09-11T09:56:19.228Z,75.12
2022-09-11T09:59:03.021Z,74.80
2022-09-11T10:01:48.287Z,75.43
2022-09-11T10:04:27.996Z,73.11
2022-09-11T10:07:11.339Z,72.20
2022-09-11T10:10:03.585Z,71.88
2022-09-11T10:12:34.781Z,70.94
2022-09-11T10:15:03.935Z,71.34
2022-09-11T10:17:33.329Z,71.27
2022-09-11T10:20:18.558Z,70.19
2022-09-11T10:22:46.354Z,72.58
2022-09-11T10:25:27.842Z,74.71
2022-09-11T10:28:17.319Z,76.68
2022-09-11T10:30:59.250Z,77.57
2022-09-11T10:33:38.383Z,77.80
2022-09-11T10:36:09.933Z,79.58
2022-09-11T10:38:48.126Z,78.55
2022-09-11T10:41:22.642Z,78.43
2022-09-11T10:44:12.003Z,78.47
2022-09-11T10:46:41.953Z,77.19
2022-09-11T10:49:23.279Z,75.69
2022-09-11T10:52:16.431Z,75.51
2022-09-11T10:55:15.732Z,75.37
2022-09-11T10:57:52.559Z,74.89
2022-09-11T11:00:30.094Z,73.62
2022-09-11T11:03:06.237Z,70.41
2022-09-11T11:05:54.979Z,70.84
2022-09-11T11:09:01.890Z,71.65
2022-09-11T11:12:09.754Z,70.25
2022-09-11T11:15:53.354Z,70.14
2022-09-11T11:18:50.138Z,67.40
2022-09-11T11:22:08.882Z,66.71
2022-09-11T11:25:03.273Z,65.96
2022-09-11T11:28:11.755Z,65.68
2022-09-11T11:30:51.436Z,62.88
2022-09-11T11:33:42.462Z,61.63
2022-09-11T11:36:40.862Z,59.89
2022-09-11T11:39:50.143Z,60.37
2022-09-11T11:42:31.226Z,59.92
2022-09-11T11:45:21.646Z,61.72
2022-09-11T11:47:51.334Z,61.81
2022-09-11T11:50:45.605Z,58.63
2022-09-11T11:53:19.732Z,58.90
2022-09-11T11:56:40.721Z,57.07
2022-09-11T11:59:20.432Z,57.82
2022-09-11T12:02:09.662Z,60.67
2022-09-11T12:04:55.708Z,60.26
2022-09-11T12:07:27.575Z,59.70
2022-09-11T12:09:57.432Z,57.76
2022-09-11T12:12:29.430Z,57.86
2022-09-11T12:15:10.239Z,58.51
2022-09-11T12:17:39.908Z,59.37
2022-09-11T12:20:43.482Z,60.46
2022-09-11T12:23:54.862Z,62.51
2022-09-11T12:26:27.469Z,59.75
2022-09-11T12:29:13.054Z,61.48
2022-09-11T12:31:51.749Z,62.02
2022-09-11T12:34:41.593Z,62.78
2022-09-11T12:37:25.214Z,60.92
2022-09-11T12:40:05.747Z,59.42
2022-09-11T12:42:32.645Z,61.01
2022-09-11T12:45:00.086Z,61.43
2022-09-11T12:47:39.687Z,59.95
2022-09-11T12:50:12.197Z,59.57
2022-09-11T12:52:45.246Z,62.75
2022-09-11T12:55:50.899Z,64.23
2022-09-11T12:58:18.832Z,62.96
2022-09-11T13:01:11.040Z,64.43
2022-09-11T13:03:49.892Z,63.04
2022-09-11T13:06:17.404Z,64.80
2022-09-11T13:09:01.291Z,64.89
2022-09-11T13:11:49.143Z,63.99
2022-09-11T13:14:47.666Z,63.42
2022-09-11T13:17:30.189Z,59.04
2022-09-11T13:20:21.902Z,57.16
2022-09-11T13:22:56.087Z,56.96
2022-09-11T13:25:27.907Z,54.72
2022-09-11T13:28:01.169Z,55.45
2022-09-11T13:30:28.329Z,54.99
2022-09-11T13:33:11.253Z,55.21
2022-09-11T13:35:43.673Z,55.82
2022-09-11T13:38:23.423Z,58.34
2022-09-11T13:41:08.128Z,57.73
2022-09-11T13:43:44.552Z,60.24
2022-09-11T13:46:32.330Z,56.14
2022-09-11T13:49:07.948Z,59.48
2022-09-11T13:51:39.231Z,58.95
2022-09-11T13:54:29.639Z,60.58
2022-09-11T13:56:56.354Z,63.41
2022-09-11T13:59:39.778Z,63.25
2022-09-11T14:02:24.122Z,65.30
2022-09-11T14:04:53.973Z,63.41
2022-09-11T14:07:26.463Z,62.75
2022-09-11T14:10:43.430Z,64.57
2022-09-11T14:13:35.512Z,63.94
2022-09-11T14:16:33.405Z,63.71
2022-09-11T14:19:14.782Z,65.81
2022-09-11T14:21:46.496Z,65.79
2022-09-11T14:27:02.414Z,64.85
2022-09-11T14:29:36.360Z,64.78
2022-09-11T14:32:37.210Z,62.95
2022-09-11T14:35:08.521Z,58.93
2022-09-11T14:37:45.701Z,60.91
2022-09-11T14:40:19.369Z,59.01
2022-09-11T14:42:47.243Z,63.71
2022-09-11T14:45:25.991Z,64.50
2022-09-11T14:47:53.515Z,69.06
2022-09-11T14:50:21.170Z,68.70
2022-09-11T14:52:48.120Z,70.55
2022-09-11T14:55:19.127Z,69.58
2022-09-11T14:57:46.704Z,70.14
2022-09-11T15:00:19.206Z,72.00
2022-09-11T15:02:47.081Z,71.52
2022-09-11T15:05:22.888Z,72.34
2022-09-11T15:07:50.060Z,72.31
2022-09-11T15:10:17.008Z,72.91
2022-09-11T15:12:44.669Z,73.24
2022-09-11T15:15:11.816Z,73.19
2022-09-11T15:17:39.957Z,73.52
2022-09-11T15:20:10.085Z,70.65
2022-09-11T15:22:38.362Z,68.24
2022-09-11T15:25:06.630Z,68.47
2022-09-11T15:27:34.338Z,67.77
2022-09-11T15:30:01.350Z,67.09
2022-09-11T15:32:28.470Z,67.61
2022-09-11T15:34:55.531Z,66.74
2022-09-11T15:37:23.629Z,67.92
2022-09-11T15:39:51.116Z,68.23
2022-09-11T15:42:19.268Z,67.91
2022-09-11T15:44:46.288Z,68.07
2022-09-11T15:47:13.964Z,68.39
2022-09-11T15:49:44.414Z,67.18
2022-09-11T15:52:12.482Z,67.50
2022-09-11T15:54:39.530Z,66.63
2022-09-11T15:57:07.585Z,67.29
2022-09-11T15:59:34.782Z,67.92
2022-09-11T16:02:01.856Z,68.10
2022-09-11T16:04:32.117Z,67.99
2022-09-11T16:06:59.661Z,69.59
2022-09-11T16:09:30.415Z,68.79
2022-09-11T16:12:00.201Z,70.45
2022-09-11T16:14:34.411Z,71.29
2022-09-11T16:17:05.411Z,72.21
2022-09-11T16:19:33.264Z,73.98
2022-09-11T16:22:04.214Z,75.13
2022-09-11T16:24:37.677Z,78.68
2022-09-11T16:27:09.849Z,80.15
2022-09-11T16:30:15.909Z,81.53
2022-09-11T16:32:31.872Z,81.52
2022-09-11T16:34:59.773Z,82.68
2022-09-11T16:37:28.290Z,83.01
2022-09-11T16:39:55.589Z,83.95
2022-09-11T16:42:22.674Z,84.41
2022-09-11T16:44:50.224Z,84.47
2022-09-11T16:47:18.175Z,83.10
2022-09-11T16:50:05.809Z,84.99
2022-09-11T16:52:32.672Z,83.37
2022-09-11T16:54:59.925Z,83.34
2022-09-11T16:57:29.977Z,84.65
2022-09-11T16:59:57.242Z,84.13
2022-09-11T17:02:24.230Z,85.15
2022-09-11T17:04:51.290Z,84.71
2022-09-11T17:07:18.755Z,86.10
2022-09-11T17:09:48.737Z,84.87
2022-09-11T17:12:17.764Z,85.02
2022-09-11T17:14:44.743Z,85.36
2022-09-11T17:17:11.777Z,84.22
2022-09-11T17:19:38.989Z,83.95
2022-09-11T17:22:06.592Z,83.28
2022-09-11T17:24:33.793Z,85.16
2022-09-11T17:27:03.575Z,86.34
2022-09-11T17:29:30.561Z,85.62
2022-09-11T17:32:16.755Z,84.81
2022-09-11T17:34:44.578Z,84.87
2022-09-11T17:37:11.541Z,85.91
2022-09-11T17:39:38.685Z,86.33
2022-09-11T17:42:11.017Z,86.47
2022-09-11T17:44:41.237Z,83.49
2022-09-11T17:47:08.232Z,84.03
2022-09-11T17:49:35.177Z,84.46
2022-09-11T17:52:02.481Z,84.00
2022-09-11T17:54:29.506Z,84.61
2022-09-11T17:56:58.026Z,84.61
2022-09-11T17:59:25.095Z,85.09
2022-09-11T18:01:52.179Z,84.21
2022-09-11T18:04:19.173Z,84.05
2022-09-11T18:06:46.670Z,84.86
2022-09-11T18:09:19.568Z,84.85
2022-09-11T18:11:51.126Z,84.54
2022-09-11T18:14:19.516Z,84.18
2022-09-11T18:16:47.813Z,85.56
2022-09-11T18:19:20.107Z,84.59
2022-09-11T18:21:50.348Z,86.79
2022-09-11T18:24:20.085Z,87.35
2022-09-11T18:26:57.207Z,86.47
2022-09-11T18:29:27.073Z,86.28
2022-09-11T18:31:54.620Z,86.01
2022-09-11T18:34:27.567Z,86.35
2022-09-11T18:36:54.704Z,85.32
2022-09-11T18:39:22.334Z,85.81
2022-09-11T18:41:52.462Z,86.02
2022-09-11T18:44:22.562Z,86.56
2022-09-11T18:46:54.446Z,85.93
2022-09-11T18:49:22.530Z,86.16
2022-09-11T18:51:49.666Z,86.11
2022-09-11T18:54:23.161Z,86.04
2022-09-11T18:56:51.022Z,86.18
2022-09-11T18:59:19.338Z,87.13
2022-09-11T19:01:46.534Z,87.69
2022-09-11T19:04:14.619Z,87.80
2022-09-11T19:06:41.662Z,88.43
2022-09-11T19:09:12.608Z,88.59
2022-09-11T19:11:40.785Z,89.01
2022-09-11T19:14:11.188Z,89.04
2022-09-11T19:16:39.468Z,89.41
2022-09-11T19:19:07.997Z,89.62
2022-09-11T19:21:36.288Z,89.41
2022-09-11T19:24:03.462Z,89.35
2022-09-11T19:26:38.863Z,89.25
2022-09-11T19:29:12.484Z,89.06
2022-09-11T19:31:40.412Z,88.95
2022-09-11T19:34:11.805Z,88.38
2022-09-11T19:36:41.046Z,88.45
2022-09-11T19:39:10.344Z,88.53
2022-09-11T19:41:39.789Z,88.20
2022-09-11T19:44:12.261Z,88.33
2022-09-11T19:46:40.943Z,88.12
2022-09-11T19:49:09.230Z,87.93
2022-09-11T19:51:44.852Z,88.31
2022-09-11T19:54:14.285Z,87.73
2022-09-11T19:56:42.430Z,88.04
2022-09-11T19:59:09.835Z,87.26
2022-09-11T20:01:37.458Z,87.14
2022-09-11T20:04:05.440Z,86.87
2022-09-11T20:06:35.487Z,87.47
2022-09-11T20:11:51.731Z,87.03
2022-09-11T20:14:18.779Z,87.37
2022-09-11T20:16:45.834Z,87.33
2022-09-11T20:19:14.728Z,87.52
2022-09-11T20:21:41.767Z,87.53
2022-09-11T20:24:09.201Z,87.78
2022-09-11T20:26:36.472Z,89.47
2022-09-11T20:29:13.711Z,89.61
2022-09-11T20:31:47.863Z,89.75
2022-09-11T20:34:18.166Z,89.50
2022-09-11T20:36:45.606Z,89.59
2022-09-11T20:39:14.103Z,89.35
2022-09-11T20:41:41.158Z,89.07
2022-09-11T20:44:08.294Z,88.79
2022-09-11T20:46:35.413Z,89.35
2022-09-11T20:49:03.978Z,89.62
2022-09-11T20:51:32.099Z,89.27
2022-09-11T20:54:00.483Z,89.46
2022-09-11T20:56:28.282Z,89.32
2022-09-11T20:58:55.729Z,89.56
2022-09-11T21:01:34.251Z,90.53
2022-09-11T21:04:04.462Z,90.84
2022-09-11T21:06:34.826Z,92.31
2022-09-11T21:09:10.923Z,92.11
2022-09-11T21:11:40.029Z,91.46
2022-09-11T21:14:07.490Z,91.73
2022-09-11T21:16:34.624Z,91.18
2022-09-11T21:19:03.253Z,90.83
2022-09-11T21:21:32.588Z,90.32
2022-09-11T21:24:04.043Z,90.14
2022-09-11T21:26:33.242Z,90.05
2022-09-11T21:29:05.707Z,89.96
2022-09-11T21:31:34.090Z,90.24
2022-09-11T21:34:02.154Z,89.63
2022-09-11T21:36:29.399Z,89.62
2022-09-11T21:38:56.393Z,89.63
2022-09-11T21:41:23.339Z,89.62
2022-09-11T21:43:50.282Z,88.80
2022-09-11T21:46:17.636Z,88.68
2022-09-11T21:48:44.675Z,90.11
2022-09-11T21:51:19.908Z,89.78
2022-09-11T21:53:49.735Z,88.79
2022-09-11T21:56:29.374Z,88.50
2022-09-11T21:58:57.285Z,88.58
2022-09-11T22:01:27.006Z,88.99
2022-09-11T22:03:54.818Z,88.50
2022-09-11T22:06:24.379Z,88.15
2022-09-11T22:08:53.330Z,88.70
2022-09-11T22:11:21.004Z,88.33
2022-09-11T22:13:48.036Z,88.16
2022-09-11T22:16:19.044Z,88.05
2022-09-11T22:18:53.299Z,88.47
2022-09-11T22:21:20.318Z,88.46
2022-09-11T22:23:47.362Z,88.59
2022-09-11T22:26:21.048Z,88.82
2022-09-11T22:28:48.296Z,88.15
2022-09-11T22:31:24.369Z,88.11
2022-09-11T22:33:53.657Z,88.43
2022-09-11T22:36:27.822Z,87.86
2022-09-11T22:38:55.735Z,89.05
2022-09-11T22:41:23.482Z,88.60
2022-09-11T22:43:50.640Z,88.06
2022-09-11T22:46:20.643Z,88.45
2022-09-11T22:48:48.538Z,88.52
2022-09-11T22:51:16.586Z,88.47
2022-09-11T22:53:43.849Z,88.26
2022-09-11T22:56:11.356Z,87.30
2022-09-11T22:58:38.572Z,87.31
2022-09-11T23:01:09.771Z,86.80
2022-09-11T23:03:37.187Z,86.57
2022-09-11T23:06:23.545Z,86.20
2022-09-11T23:08:50.736Z,86.96
2022-09-11T23:11:19.944Z,86.89
2022-09-11T23:13:48.544Z,86.95
2022-09-11T23:16:22.826Z,87.00
2022-09-11T23:18:59.693Z,87.43
2022-09-11T23:21:28.346Z,87.51
2022-09-11T23:23:58.062Z,87.28
2022-09-11T23:26:27.947Z,87.49
2022-09-11T23:28:55.754Z,87.07
2022-09-11T23:31:27.814Z,87.35
2022-09-11T23:33:59.092Z,88.47
2022-09-11T23:36:28.548Z,88.09
2022-09-11T23:38:56.101Z,89.28
2022-09-11T23:41:23.877Z,89.77
2022-09-11T23:43:51.307Z,91.39
2022-09-11T23:46:19.074Z,91.50
2022-09-11T23:48:46.649Z,91.34
2022-09-11T23:51:15.530Z,90.41
2022-09-11T23:53:45.213Z,90.16
2022-09-11T23:56:14.410Z,89.32
2022-09-11T23:58:42.126Z,88.87
